Time;durP1;ratioP1;P1;durP2;ratioP2;P2;SDS_P1;SDS_P2;PMS_P1;PMS_P2;Temp;Humidity;BMP_temperature;BMP_pressure;BME280_temperature;BME280_humidity;BME280_pressure;Samples;Min_cycle;Max_cycle;Signal;HPM_P1;HPM_P2
2022/11/30 00:01:12;;;;;;;57.67;33.08;;;;;;;6.97;95.20;99745.72;5052409;28;20029;-68
2022/11/30 00:03:38;;;;;;;63.97;35.60;;;;;;;7.02;94.87;99733.69;5034386;28;20066;-67
2022/11/30 00:06:06;;;;;;;56.72;31.63;;;;;;;7.02;94.67;99736.47;5052749;28;20560;-68
2022/11/30 00:08:31;;;;;;;62.55;33.42;;;;;;;7.04;94.83;99745.34;5051284;28;20024;-68
2022/11/30 00:10:56;;;;;;;57.10;33.10;;;;;;;7.05;94.69;99748.94;5052288;28;20173;-68
2022/11/30 00:13:22;;;;;;;63.17;33.88;;;;;;;7.05;94.19;99737.81;5052241;28;20070;-68
2022/11/30 00:15:47;;;;;;;64.57;35.30;;;;;;;6.99;94.05;99740.69;5034340;28;20032;-68
2022/11/30 00:18:15;;;;;;;65.10;33.63;;;;;;;6.97;94.48;99747.66;5051187;28;20032;-67
2022/11/30 00:20:41;;;;;;;61.85;33.90;;;;;;;6.95;94.10;99741.59;5032116;28;20032;-68
2022/11/30 00:23:08;;;;;;;61.88;34.35;;;;;;;6.90;95.19;99744.47;5034215;28;20420;-67
2022/11/30 00:25:35;;;;;;;68.53;36.53;;;;;;;6.87;95.05;99748.69;5051960;28;20079;-68
2022/11/30 00:28:01;;;;;;;61.53;36.25;;;;;;;6.93;95.21;99741.06;5050583;28;20115;-68
2022/11/30 00:30:26;;;;;;;66.70;36.30;;;;;;;6.91;95.08;99746.94;5032890;28;20056;-67
2022/11/30 00:32:56;;;;;;;59.97;34.65;;;;;;;6.94;95.16;99739.94;5030340;28;20074;-67
2022/11/30 00:35:22;;;;;;;55.25;32.15;;;;;;;6.81;95.63;99735.97;5043155;28;20113;-68
2022/11/30 00:37:47;;;;;;;56.65;32.72;;;;;;;6.81;95.73;99736.81;5046887;28;20115;-68
2022/11/30 00:40:13;;;;;;;58.70;32.70;;;;;;;6.87;95.41;99734.78;5046375;28;20025;-68
2022/11/30 00:42:38;;;;;;;56.25;32.08;;;;;;;6.97;94.99;99736.53;5032914;28;20032;-68
2022/11/30 00:45:04;;;;;;;63.88;35.28;;;;;;;7.00;95.08;99734.00;5033398;28;20056;-68
2022/11/30 00:47:30;;;;;;;52.22;30.80;;;;;;;7.00;95.08;99734.00;5033229;28;20048;-68
2022/11/30 00:49:55;;;;;;;54.20;30.15;;;;;;;7.02;94.93;99734.50;5050158;28;20033;-68
2022/11/30 00:52:20;;;;;;;55.05;28.75;;;;;;;7.04;94.73;99728.66;5033198;28;20017;-67
2022/11/30 00:54:46;;;;;;;53.70;28.92;;;;;;;7.06;94.81;99729.16;5033261;28;20491;-67
2022/11/30 00:57:11;;;;;;;53.85;30.48;;;;;;;6.59;96.22;99729.13;5033167;28;20599;-67
2022/11/30 00:59:37;;;;;;;50.53;29.08;;;;;;;6.43;98.45;99732.09;5032234;28;20060;-67
2022/11/30 01:02:02;;;;;;;54.65;29.10;;;;;;;6.70;97.28;99729.75;5051097;28;20587;-67
2022/11/30 01:04:28;;;;;;;48.45;26.88;;;;;;;6.84;96.37;99722.28;5033403;28;20051;-67
2022/11/30 01:06:53;;;;;;;54.05;28.38;;;;;;;6.48;97.19;99719.28;5051356;28;20017;-68
2022/11/30 01:09:19;;;;;;;49.97;27.75;;;;;;;6.66;97.89;99721.19;5050514;28;20028;-67
2022/11/30 01:11:44;;;;;;;54.22;28.50;;;;;;;6.60;97.87;99723.22;5051292;28;20043;-67
2022/11/30 01:14:09;;;;;;;49.28;28.00;;;;;;;6.62;98.20;99724.88;5051232;28;20032;-67
2022/11/30 01:16:35;;;;;;;49.40;27.75;;;;;;;6.67;98.36;99722.03;5051268;28;20027;-68
2022/11/30 01:19:01;;;;;;;46.75;26.23;;;;;;;6.82;97.35;99726.53;5031841;28;20021;-67
2022/11/30 01:21:27;;;;;;;45.10;25.13;;;;;;;6.65;97.72;99724.31;5049803;28;20041;-68
2022/11/30 01:23:53;;;;;;;44.63;23.80;;;;;;;6.75;97.31;99721.34;5051201;28;20091;-68
2022/11/30 01:26:19;;;;;;;39.83;21.45;;;;;;;6.09;99.76;99712.88;5049829;28;20051;-67
2022/11/30 01:28:52;;;;;;;42.88;22.83;;;;;;;6.03;100.00;99715.75;5050986;28;20028;-67
2022/11/30 01:31:19;;;;;;;43.97;24.15;;;;;;;6.08;100.00;99712.03;5032594;28;20503;-68
2022/11/30 01:33:52;;;;;;;39.40;21.88;;;;;;;6.00;100.00;99710.72;5050025;28;20484;-67
2022/11/30 01:36:20;;;;;;;43.55;21.63;;;;;;;6.08;100.00;99714.00;5049621;28;20029;-67
2022/11/30 01:38:51;;;;;;;43.35;21.83;;;;;;;6.17;100.00;99720.56;5033022;28;20518;-68
2022/11/30 01:41:20;;;;;;;42.88;21.50;;;;;;;6.34;100.00;99714.47;5032724;28;20512;-67
2022/11/30 01:43:45;;;;;;;42.07;22.23;;;;;;;6.17;100.00;99709.44;5050663;28;20051;-67
2022/11/30 01:46:17;;;;;;;40.28;20.90;;;;;;;6.04;100.00;99711.00;5049718;28;20021;-67
2022/11/30 01:48:43;;;;;;;44.03;22.33;;;;;;;6.15;100.00;99703.34;5032584;28;20092;-68
2022/11/30 01:51:08;;;;;;;41.08;21.90;;;;;;;6.14;100.00;99704.47;5050363;28;20028;-68
2022/11/30 01:53:34;;;;;;;41.65;21.85;;;;;;;6.23;100.00;99699.91;5050633;28;20108;-68
2022/11/30 01:56:00;;;;;;;38.75;20.58;;;;;;;6.35;100.00;99702.25;5032701;28;20461;-68
2022/11/30 01:58:29;;;;;;;43.92;22.20;;;;;;;6.36;100.00;99697.50;5049524;28;20489;-68
2022/11/30 02:00:55;;;;;;;44.22;20.77;;;;;;;6.30;100.00;99700.38;5032632;28;20470;-68
2022/11/30 02:03:25;;;;;;;40.13;22.13;;;;;;;6.19;100.00;99701.63;5032464;28;20419;-68
2022/11/30 02:05:50;;;;;;;43.92;23.40;;;;;;;6.23;100.00;99694.34;5050696;28;20506;-68
2022/11/30 02:08:17;;;;;;;51.03;26.73;;;;;;;6.01;100.00;99694.91;5053529;28;20036;-68
2022/11/30 02:10:48;;;;;;;46.63;24.98;;;;;;;6.28;100.00;99699.84;5054625;28;20108;-68
2022/11/30 02:13:26;;;;;;;45.45;23.00;;;;;;;6.44;100.00;99696.81;5036675;28;20021;-68
2022/11/30 02:16:26;;;;;;;39.75;20.20;;;;;;;6.56;100.00;99702.75;5054446;28;20025;-68
2022/11/30 02:19:36;;;;;;;42.03;22.17;;;;;;;6.53;100.00;99711.69;5033208;28;20029;-68
2022/11/30 02:22:15;;;;;;;40.58;22.70;;;;;;;6.50;100.00;99703.13;5034335;28;20114;-68
2022/11/30 02:25:25;;;;;;;43.05;22.73;;;;;;;6.55;100.00;99703.88;5033100;28;20029;-68
2022/11/30 02:28:23;;;;;;;47.35;23.10;;;;;;;6.65;100.00;99707.63;4965787;28;20038;-67
2022/11/30 02:30:52;;;;;;;42.80;21.75;;;;;;;6.77;99.61;99707.13;5016341;28;20466;-68
2022/11/30 02:33:24;;;;;;;43.10;22.77;;;;;;;6.43;99.71;99706.28;5042641;28;20483;-68
2022/11/30 02:35:52;;;;;;;41.17;22.52;;;;;;;6.38;100.00;99701.63;5053690;28;21003;-68
2022/11/30 02:38:22;;;;;;;38.72;20.30;;;;;;;6.51;100.00;99693.66;5052653;28;20025;-67
2022/11/30 02:40:48;;;;;;;37.25;21.13;;;;;;;6.00;100.00;99699.63;5047135;28;20025;-68
2022/11/30 02:43:16;;;;;;;41.72;22.40;;;;;;;6.08;100.00;99700.13;5026138;28;20103;-68
2022/11/30 02:45:56;;;;;;;44.78;23.90;;;;;;;6.04;100.00;99706.28;5053648;28;20543;-68
2022/11/30 02:48:44;;;;;;;45.85;24.27;;;;;;;5.85;100.00;99703.47;5052222;28;20075;-68
2022/11/30 02:51:16;;;;;;;46.63;23.90;;;;;;;5.88;100.00;99699.25;5053531;28;20049;-67
2022/11/30 02:53:42;;;;;;;51.67;26.02;;;;;;;6.20;100.00;99719.13;5035809;28;20557;-68
2022/11/30 02:56:07;;;;;;;44.03;23.38;;;;;;;6.26;100.00;99715.97;5053589;28;20029;-67
2022/11/30 02:58:33;;;;;;;47.17;25.52;;;;;;;6.26;100.00;99701.25;5034553;28;20028;-68
2022/11/30 03:00:58;;;;;;;46.95;24.45;;;;;;;6.22;100.00;99712.13;5053446;28;20551;-67
2022/11/30 03:03:23;;;;;;;50.45;23.95;;;;;;;6.40;100.00;99702.16;5053215;28;20029;-68
2022/11/30 03:05:49;;;;;;;48.40;25.67;;;;;;;6.34;100.00;99700.59;5053506;28;20087;-67
2022/11/30 03:08:14;;;;;;;50.58;26.05;;;;;;;6.00;100.00;99702.41;5052432;28;20039;-68
2022/11/30 03:10:40;;;;;;;41.70;22.80;;;;;;;6.29;100.00;99714.53;5053473;28;20013;-68
2022/11/30 03:13:05;;;;;;;50.97;25.98;;;;;;;6.36;100.00;99716.94;5053400;28;20028;-67
2022/11/30 03:15:31;;;;;;;46.30;24.50;;;;;;;6.48;100.00;99708.97;5053461;28;20025;-68
2022/11/30 03:18:00;;;;;;;45.95;24.38;;;;;;;6.55;100.00;99706.66;5033488;28;20029;-68
2022/11/30 03:20:26;;;;;;;49.45;27.08;;;;;;;6.51;100.00;99705.59;5052183;28;20021;-68
2022/11/30 03:22:51;;;;;;;51.45;26.73;;;;;;;6.17;100.00;99704.69;5053249;28;20508;-68
2022/11/30 03:25:17;;;;;;;45.42;25.77;;;;;;;6.42;100.00;99704.63;5035335;28;20508;-68
2022/11/30 03:27:42;;;;;;;52.33;27.50;;;;;;;6.44;100.00;99705.16;5051954;28;20032;-68
2022/11/30 03:30:08;;;;;;;47.65;24.45;;;;;;;6.50;100.00;99706.72;5035238;28;20029;-68
2022/11/30 03:32:34;;;;;;;46.83;25.70;;;;;;;6.70;100.00;99708.38;5035190;28;20033;-68
2022/11/30 03:34:59;;;;;;;48.30;25.50;;;;;;;6.65;100.00;99707.63;5052638;28;20021;-67
2022/11/30 03:37:25;;;;;;;40.53;22.63;;;;;;;6.57;100.00;99709.09;5034058;28;20032;-68
2022/11/30 03:39:50;;;;;;;48.38;26.25;;;;;;;6.49;100.00;99710.63;5052773;28;20021;-68
2022/11/30 03:42:15;;;;;;;43.35;24.38;;;;;;;6.50;100.00;99705.91;5052690;28;20029;-68
2022/11/30 03:44:41;;;;;;;39.45;22.95;;;;;;;6.62;100.00;99708.19;5052516;28;20024;-68
2022/11/30 03:47:06;;;;;;;43.22;22.08;;;;;;;6.59;100.00;99715.22;5051407;28;20060;-67
2022/11/30 03:49:32;;;;;;;41.45;23.27;;;;;;;6.64;100.00;99711.53;5052841;28;20045;-68
2022/11/30 03:51:57;;;;;;;40.42;21.33;;;;;;;6.45;100.00;99709.59;5052411;28;20067;-67
2022/11/30 03:54:23;;;;;;;36.42;20.25;;;;;;;6.35;100.00;99712.50;5034695;28;20029;-68
2022/11/30 03:56:48;;;;;;;37.53;20.70;;;;;;;6.19;100.00;99712.75;5051155;28;20488;-67
2022/11/30 03:59:14;;;;;;;38.65;20.70;;;;;;;5.74;100.00;99713.03;5052114;28;20507;-67
2022/11/30 04:01:42;;;;;;;41.83;21.30;;;;;;;5.61;100.00;99715.41;5052298;28;20036;-67
2022/11/30 04:04:07;;;;;;;38.60;20.38;;;;;;;5.95;100.00;99721.09;5052224;28;20036;-68
2022/11/30 04:06:33;;;;;;;36.05;19.75;;;;;;;6.12;100.00;99720.63;5051500;28;20025;-67
2022/11/30 04:08:58;;;;;;;41.05;21.83;;;;;;;6.29;100.00;99715.38;5051206;28;20033;-68
2022/11/30 04:11:24;;;;;;;38.67;19.35;;;;;;;6.33;100.00;99718.34;5051980;28;20040;-67
2022/11/30 04:13:49;;;;;;;42.55;21.83;;;;;;;6.40;100.00;99718.00;5051878;28;20040;-67
2022/11/30 04:16:15;;;;;;;38.13;20.67;;;;;;;6.46;100.00;99725.97;5034197;28;20032;-68
2022/11/30 04:18:40;;;;;;;38.67;20.05;;;;;;;6.47;100.00;99732.34;5050998;28;20112;-68
2022/11/30 04:21:06;;;;;;;33.13;19.83;;;;;;;6.51;100.00;99725.03;5051980;28;20029;-68
2022/11/30 04:23:37;;;;;;;44.30;21.67;;;;;;;6.58;100.00;99724.69;5051914;28;20083;-68
2022/11/30 04:26:07;;;;;;;37.42;20.73;;;;;;;6.70;100.00;99729.75;5052014;28;20481;-68
2022/11/30 04:28:33;;;;;;;39.58;21.60;;;;;;;6.34;100.00;99742.25;5050658;28;20118;-68
2022/11/30 04:30:59;;;;;;;39.10;19.67;;;;;;;6.51;100.00;99725.03;5051384;28;20052;-68
2022/11/30 04:33:26;;;;;;;36.25;18.88;;;;;;;6.44;100.00;99728.19;5051527;28;20029;-68
2022/11/30 04:35:54;;;;;;;36.33;20.60;;;;;;;6.48;100.00;99728.44;5033860;28;20055;-68
2022/11/30 04:38:20;;;;;;;34.47;18.70;;;;;;;6.51;100.00;99722.25;5050453;28;20446;-68
2022/11/30 04:40:46;;;;;;;35.78;19.42;;;;;;;6.59;100.00;99738.25;5051556;28;20083;-67
2022/11/30 04:43:12;;;;;;;32.40;18.77;;;;;;;6.46;100.00;99731.53;5049998;28;20036;-67
2022/11/30 04:45:38;;;;;;;36.08;19.00;;;;;;;6.52;100.00;99739.78;5027161;28;20040;-67
2022/11/30 04:48:04;;;;;;;37.38;20.63;;;;;;;6.54;100.00;99735.56;5046776;28;20045;-67
2022/11/30 04:50:30;;;;;;;36.15;19.38;;;;;;;6.49;100.00;99741.19;5031596;28;20037;-68
2022/11/30 04:52:55;;;;;;;35.70;21.02;;;;;;;6.57;100.00;99745.25;5024001;28;20033;-67
2022/11/30 04:55:21;;;;;;;33.33;19.23;;;;;;;6.65;100.00;99735.41;5052144;28;20487;-68
2022/11/30 04:57:47;;;;;;;33.03;17.73;;;;;;;6.52;100.00;99718.38;5031992;28;20033;-68
2022/11/30 05:00:15;;;;;;;37.75;19.55;;;;;;;6.66;100.00;99742.63;5051203;28;20025;-67
2022/11/30 05:02:41;;;;;;;32.67;17.58;;;;;;;6.75;100.00;99738.00;5049039;28;20527;-68
2022/11/30 05:05:07;;;;;;;38.00;20.20;;;;;;;6.66;100.00;99740.66;5051406;28;20040;-68
2022/11/30 05:07:33;;;;;;;31.00;19.40;;;;;;;6.69;100.00;99745.59;5050404;28;20033;-68
2022/11/30 05:09:58;;;;;;;31.05;19.05;;;;;;;6.83;100.00;99748.44;5028235;28;20507;-67
2022/11/30 05:12:24;;;;;;;30.48;17.65;;;;;;;6.88;100.00;99753.09;5044868;28;20095;-68
2022/11/30 05:14:49;;;;;;;29.48;16.38;;;;;;;6.94;100.00;99753.84;5050342;28;20138;-68
2022/11/30 05:17:15;;;;;;;31.02;17.95;;;;;;;7.01;99.85;99755.09;5030767;28;20079;-67
2022/11/30 05:19:40;;;;;;;25.17;15.85;;;;;;;7.01;99.77;99754.28;5043765;28;20049;-68
2022/11/30 05:22:06;;;;;;;33.70;16.23;;;;;;;7.06;99.27;99753.34;5051781;28;20485;-69
2022/11/30 05:24:31;;;;;;;28.52;15.55;;;;;;;7.00;99.09;99756.25;5051641;28;20040;-68
2022/11/30 05:26:57;;;;;;;30.55;15.65;;;;;;;7.04;98.74;99759.25;5032479;28;20102;-67
2022/11/30 05:29:22;;;;;;;29.90;15.57;;;;;;;6.04;100.00;99764.59;5051521;28;20029;-67
2022/11/30 05:31:48;;;;;;;30.10;17.23;;;;;;;6.03;100.00;99762.13;5051797;28;20125;-66
2022/11/30 05:34:13;;;;;;;30.00;16.35;;;;;;;6.19;100.00;99768.31;5051532;28;20029;-67
2022/11/30 05:36:39;;;;;;;36.65;18.23;;;;;;;5.95;100.00;99758.03;5031684;28;20488;-67
2022/11/30 05:39:04;;;;;;;38.08;18.23;;;;;;;5.79;100.00;99765.72;5043282;28;20025;-67
2022/11/30 05:41:30;;;;;;;34.53;18.27;;;;;;;6.03;100.00;99771.28;5025398;28;20033;-67
2022/11/30 05:43:56;;;;;;;36.72;18.58;;;;;;;5.86;100.00;99766.19;5036737;28;20029;-67
2022/11/30 05:46:21;;;;;;;31.67;17.30;;;;;;;5.69;100.00;99761.09;5036873;28;20120;-67
2022/11/30 05:48:47;;;;;;;32.15;17.20;;;;;;;6.04;100.00;99769.31;5052634;28;20057;-67
2022/11/30 05:51:16;;;;;;;33.38;16.95;;;;;;;5.87;100.00;99769.78;5054457;28;20033;-67
2022/11/30 05:53:42;;;;;;;28.33;16.45;;;;;;;6.16;100.00;99768.91;5051689;28;20033;-67
2022/11/30 05:56:11;;;;;;;27.25;16.02;;;;;;;5.90;100.00;99769.16;5035223;28;20120;-67
2022/11/30 05:58:37;;;;;;;28.50;15.63;;;;;;;6.17;100.00;99770.56;5047362;28;20479;-67
2022/11/30 06:01:03;;;;;;;22.85;13.32;;;;;;;6.36;100.00;99783.63;5054959;28;20032;-67
2022/11/30 06:03:30;;;;;;;22.10;13.07;;;;;;;6.05;100.00;99779.31;5054299;28;20025;-68
2022/11/30 06:05:55;;;;;;;26.88;13.43;;;;;;;6.40;100.00;99788.28;5054568;28;20486;-67
2022/11/30 06:08:21;;;;;;;21.27;11.98;;;;;;;6.52;100.00;99781.47;5053520;28;20033;-67
2022/11/30 06:10:47;;;;;;;18.30;11.88;;;;;;;6.51;100.00;99779.81;5054266;28;20029;-68
2022/11/30 06:13:14;;;;;;;21.45;12.27;;;;;;;6.59;100.00;99791.06;5053999;28;20186;-67
2022/11/30 06:15:40;;;;;;;19.50;11.80;;;;;;;6.70;100.00;99788.16;5052491;28;20029;-67
2022/11/30 06:18:07;;;;;;;22.10;12.43;;;;;;;6.68;100.00;99796.78;5031446;28;20028;-67
2022/11/30 06:20:32;;;;;;;22.05;12.25;;;;;;;6.67;100.00;99794.31;5036597;28;20086;-67
2022/11/30 06:22:58;;;;;;;19.83;11.68;;;;;;;6.72;100.00;99792.28;5053951;28;20111;-67
2022/11/30 06:25:25;;;;;;;28.75;12.65;;;;;;;6.74;100.00;99797.53;5052907;28;20028;-68
2022/11/30 06:27:51;;;;;;;20.67;12.05;;;;;;;6.70;100.00;99800.09;5034031;28;20055;-67
2022/11/30 06:30:16;;;;;;;42.25;24.90;;;;;;;6.72;100.00;99805.34;5051918;28;20488;-69
2022/11/30 06:32:46;;;;;;;19.30;11.68;;;;;;;6.79;100.00;99803.03;5053626;28;20466;-67
2022/11/30 06:35:12;;;;;;;23.60;12.57;;;;;;;6.60;100.00;99801.06;5053724;28;20035;-67
2022/11/30 06:37:37;;;;;;;16.88;10.98;;;;;;;6.43;100.00;99803.53;5033999;28;20040;-67
2022/11/30 06:40:03;;;;;;;17.77;11.52;;;;;;;6.42;100.00;99799.94;5052801;28;20567;-67
2022/11/30 06:42:30;;;;;;;21.55;12.02;;;;;;;6.35;100.00;99799.47;5053891;28;20021;-67
2022/11/30 06:44:56;;;;;;;17.05;12.32;;;;;;;6.47;100.00;99799.03;5053382;28;20093;-67
2022/11/30 06:47:21;;;;;;;18.85;12.45;;;;;;;6.37;100.00;99801.94;5052762;28;20048;-67
2022/11/30 06:49:47;;;;;;;21.67;13.38;;;;;;;6.23;100.00;99797.13;5051540;28;20028;-67
2022/11/30 06:52:12;;;;;;;14.02;9.65;;;;;;;6.22;100.00;99800.22;5048795;28;20063;-67
2022/11/30 06:54:37;;;;;;;14.73;9.77;;;;;;;6.24;100.00;99804.34;5030978;28;20098;-67
2022/11/30 06:57:03;;;;;;;10.75;8.52;;;;;;;6.31;100.00;99802.03;5050982;28;20040;-67
2022/11/30 06:59:28;;;;;;;13.15;7.95;;;;;;;6.30;100.00;99808.72;5048631;28;20024;-67
2022/11/30 07:01:54;;;;;;;13.00;9.73;;;;;;;6.28;100.00;99807.34;5051551;28;20341;-67
2022/11/30 07:04:19;;;;;;;16.85;10.90;;;;;;;6.27;100.00;99812.06;5051285;28;20094;-67
2022/11/30 07:06:45;;;;;;;13.60;9.55;;;;;;;6.22;100.00;99812.13;5051867;28;20025;-67
2022/11/30 07:09:12;;;;;;;12.98;9.05;;;;;;;6.21;100.00;99820.75;5051610;28;20025;-67
2022/11/30 07:11:37;;;;;;;9.90;7.65;;;;;;;6.21;100.00;99810.50;5051540;28;20090;-67
2022/11/30 07:14:03;;;;;;;11.00;8.57;;;;;;;6.26;100.00;99818.75;5053341;28;20028;-67
2022/11/30 07:16:28;;;;;;;8.30;6.57;;;;;;;6.32;100.00;99822.28;5035383;28;20031;-67
2022/11/30 07:18:54;;;;;;;11.50;6.82;;;;;;;6.26;100.00;99817.94;5033461;28;20021;-67
2022/11/30 07:21:19;;;;;;;8.05;6.28;;;;;;;6.23;100.00;99818.53;5053172;28;20551;-67
2022/11/30 07:26:28;;;;;;;11.05;6.85;;;;;;;6.26;100.00;99820.72;5045355;28;20040;-67
2022/11/30 07:28:56;;;;;;;15.00;9.05;;;;;;;6.31;100.00;99821.47;5044872;28;20037;-67
2022/11/30 07:31:30;;;;;;;12.20;6.47;;;;;;;6.36;100.00;99814.19;5051890;28;20036;-67
2022/11/30 07:33:57;;;;;;;11.18;6.68;;;;;;;6.35;100.00;99823.66;5032953;28;20040;-67
2022/11/30 07:36:24;;;;;;;12.77;7.50;;;;;;;6.34;100.00;99817.28;5047222;28;20025;-67
2022/11/30 07:38:50;;;;;;;21.50;13.90;;;;;;;6.27;100.00;99808.47;5048936;28;20041;-67
2022/11/30 07:41:16;;;;;;;10.38;6.95;;;;;;;6.19;100.00;99812.75;5044113;28;20029;-66
2022/11/30 07:43:41;;;;;;;12.98;8.90;;;;;;;6.30;100.00;99824.53;5047736;28;20060;-66
2022/11/30 07:46:10;;;;;;;9.63;7.47;;;;;;;6.28;100.00;99821.25;5034690;28;20035;-68
2022/11/30 07:48:35;;;;;;;8.00;6.00;;;;;;;6.25;100.00;99817.09;5034468;28;20427;-66
2022/11/30 07:51:06;;;;;;;9.88;5.97;;;;;;;6.32;100.00;99828.69;5045862;28;20033;-67
2022/11/30 07:53:32;;;;;;;9.82;7.00;;;;;;;6.27;100.00;99828.72;5048274;28;20025;-68
2022/11/30 07:56:10;;;;;;;10.57;6.50;;;;;;;6.34;100.00;99822.84;5031696;28;20548;-67
2022/11/30 07:58:37;;;;;;;8.35;5.65;;;;;;;6.32;100.00;99823.13;5049309;28;20090;-69
2022/11/30 08:01:08;;;;;;;7.38;5.32;;;;;;;6.22;100.00;99819.66;5047791;28;20024;-69
2022/11/30 08:03:35;;;;;;;13.93;8.15;;;;;;;6.28;100.00;99819.31;5046534;28;20032;-67
2022/11/30 08:06:12;;;;;;;10.23;6.30;;;;;;;6.39;100.00;99831.09;5050796;28;20411;-68
2022/11/30 08:08:43;;;;;;;13.32;6.88;;;;;;;6.32;100.00;99828.69;5034195;28;20120;-67
2022/11/30 08:11:11;;;;;;;9.35;6.18;;;;;;;6.35;100.00;99821.72;5051737;28;20029;-68
2022/11/30 08:13:36;;;;;;;14.10;7.70;;;;;;;6.39;100.00;99833.88;5051082;28;20028;-67
2022/11/30 08:16:08;;;;;;;8.20;5.78;;;;;;;6.44;100.00;99825.47;5047073;28;20032;-69
2022/11/30 08:18:33;;;;;;;14.10;7.68;;;;;;;6.43;100.00;99820.22;5035867;28;20510;-71
2022/11/30 08:21:01;;;;;;;7.68;5.35;;;;;;;6.45;100.00;99815.19;5051586;28;20021;-68
2022/11/30 08:23:28;;;;;;;10.98;5.90;;;;;;;6.46;100.00;99817.66;5043688;28;20053;-67
2022/11/30 08:25:53;;;;;;;11.75;6.57;;;;;;;6.45;100.00;99817.97;5050161;28;20049;-67
2022/11/30 08:28:19;;;;;;;9.98;5.80;;;;;;;6.49;100.00;99823.75;5057352;28;20048;-68
2022/11/30 08:30:45;;;;;;;10.70;5.13;;;;;;;6.45;100.00;99823.53;5048764;28;20046;-69
2022/11/30 08:33:10;;;;;;;12.52;7.40;;;;;;;6.53;100.00;99820.09;5030546;28;20024;-67
2022/11/30 08:35:36;;;;;;;15.10;7.60;;;;;;;6.39;100.00;99810.81;5053970;28;20084;-69
2022/11/30 08:38:01;;;;;;;9.20;6.30;;;;;;;6.45;100.00;99815.19;5050318;28;20033;-69
2022/11/30 08:40:27;;;;;;;12.15;8.85;;;;;;;6.43;100.00;99821.03;5049570;28;20029;-68
2022/11/30 08:42:52;;;;;;;8.82;5.40;;;;;;;6.43;100.00;99818.25;5050705;28;20028;-66
2022/11/30 08:45:17;;;;;;;8.35;5.57;;;;;;;6.35;100.00;99805.03;5050343;28;20029;-66
2022/11/30 08:47:43;;;;;;;9.52;5.05;;;;;;;6.44;100.00;99813.53;5051339;28;20056;-65
2022/11/30 08:50:09;;;;;;;6.93;5.10;;;;;;;6.43;100.00;99811.88;5031185;28;20119;-69
2022/11/30 08:52:34;;;;;;;7.05;5.00;;;;;;;6.37;100.00;99801.94;5031299;28;20044;-66
2022/11/30 08:55:00;;;;;;;5.00;4.00;;;;;;;6.45;100.00;99816.00;5013886;28;20044;-66
2022/11/30 08:57:25;;;;;;;5.68;4.15;;;;;;;6.47;100.00;99812.94;5030566;28;20028;-66
2022/11/30 08:59:51;;;;;;;8.82;4.40;;;;;;;6.48;100.00;99809.03;5045785;28;20021;-71
2022/11/30 09:02:18;;;;;;;5.07;4.20;;;;;;;6.45;100.00;99810.44;5049130;28;20173;-73
2022/11/30 09:04:46;;;;;;;6.43;4.53;;;;;;;6.56;99.59;99819.47;5048550;28;20480;-68
2022/11/30 09:07:12;;;;;;;7.75;4.88;;;;;;;6.53;99.07;99810.91;5048318;28;20032;-69
2022/11/30 09:09:38;;;;;;;7.38;4.63;;;;;;;6.52;100.00;99814.81;5030946;28;20037;-69
2022/11/30 09:12:04;;;;;;;6.03;5.03;;;;;;;6.60;99.24;99819.72;5039113;28;20538;-70
2022/11/30 09:14:29;;;;;;;9.70;4.68;;;;;;;6.63;98.91;99815.47;5019881;28;20086;-71
2022/11/30 09:16:55;;;;;;;6.43;4.88;;;;;;;6.56;100.00;99811.13;5036223;28;20033;-68
2022/11/30 09:19:21;;;;;;;7.40;5.47;;;;;;;6.50;100.00;99812.31;5041083;28;20033;-67
2022/11/30 09:21:46;;;;;;;8.95;5.35;;;;;;;6.49;100.00;99801.53;5034894;28;20024;-67
2022/11/30 09:24:12;;;;;;;6.28;4.47;;;;;;;6.47;100.00;99807.38;5039936;28;20052;-67
2022/11/30 09:26:37;;;;;;;11.18;5.75;;;;;;;6.55;100.00;99794.75;5047441;28;20044;-67
2022/11/30 09:29:03;;;;;;;6.85;5.00;;;;;;;6.66;99.78;99795.44;5050759;28;20385;-67
2022/11/30 09:31:29;;;;;;;6.15;4.53;;;;;;;6.70;99.23;99791.75;5043683;28;20631;-67
2022/11/30 09:33:56;;;;;;;7.82;5.82;;;;;;;6.63;100.00;99801.59;5023250;28;20036;-66
2022/11/30 09:36:25;;;;;;;12.45;6.32;;;;;;;6.65;100.00;99802.94;5019493;28;20527;-67
2022/11/30 09:38:52;;;;;;;9.97;5.77;;;;;;;6.68;99.44;99815.41;5039063;28;20036;-68
2022/11/30 09:41:35;;;;;;;7.05;5.35;;;;;;;6.61;98.79;99804.69;5027927;28;20028;-69
2022/11/30 09:44:23;;;;;;;6.55;4.72;;;;;;;6.57;99.19;99810.00;5035803;28;20646;-67
2022/11/30 09:47:11;;;;;;;9.93;5.20;;;;;;;6.71;99.55;99815.66;5046000;28;20587;-66
2022/11/30 09:49:41;;;;;;;7.85;5.25;;;;;;;6.58;99.16;99808.06;4994618;28;20045;-66
2022/11/30 09:52:33;;;;;;;8.35;5.93;;;;;;;6.57;100.00;99807.22;5029016;28;20028;-66
2022/11/30 09:55:05;;;;;;;11.00;6.35;;;;;;;6.65;100.00;99802.13;5046592;28;20029;-66
2022/11/30 09:57:33;;;;;;;9.38;5.97;;;;;;;6.67;100.00;99806.25;5037853;28;20036;-66
2022/11/30 10:00:03;;;;;;;9.07;5.82;;;;;;;6.67;100.00;99805.44;5047678;28;20090;-66
2022/11/30 10:02:39;;;;;;;6.75;5.10;;;;;;;6.73;100.00;99807.00;5047174;28;20075;-66
2022/11/30 10:05:20;;;;;;;7.38;5.63;;;;;;;6.75;100.00;99804.72;5043909;28;20033;-66
2022/11/30 10:08:16;;;;;;;9.13;5.40;;;;;;;6.81;100.00;99811.03;5047231;28;20032;-66
2022/11/30 10:10:51;;;;;;;7.93;5.63;;;;;;;6.71;100.00;99817.59;5047488;28;20021;-66
2022/11/30 10:13:39;;;;;;;5.85;4.63;;;;;;;6.82;100.00;99813.53;5036831;28;20086;-67
2022/11/30 10:16:04;;;;;;;10.43;5.70;;;;;;;6.79;100.00;99813.31;5046881;28;20056;-66
2022/11/30 10:18:57;;;;;;;6.55;4.90;;;;;;;6.84;100.00;99802.94;5041691;28;20112;-66
2022/11/30 10:22:07;;;;;;;8.55;5.63;;;;;;;6.82;100.00;99813.53;5043264;28;20048;-66
2022/11/30 10:24:35;;;;;;;7.15;6.05;;;;;;;6.65;100.00;99807.69;5047091;28;20064;-66
2022/11/30 10:27:27;;;;;;;10.15;6.75;;;;;;;6.60;100.00;99811.38;5049370;28;20116;-66
2022/11/30 10:29:54;;;;;;;7.82;6.43;;;;;;;6.74;100.00;99817.81;5036710;28;20598;-66
2022/11/30 10:32:23;;;;;;;9.48;7.30;;;;;;;6.78;100.00;99812.50;5034144;28;20025;-67
2022/11/30 10:34:55;;;;;;;23.20;11.30;;;;;;;6.74;100.00;99811.41;5032669;28;20499;-66
2022/11/30 10:37:28;;;;;;;20.75;11.63;;;;;;;6.70;100.00;99821.50;5051730;28;20472;-66
2022/11/30 10:40:01;;;;;;;29.00;14.20;;;;;;;6.70;100.00;99815.94;5051965;28;20082;-66
2022/11/30 10:42:35;;;;;;;15.27;10.48;;;;;;;6.73;100.00;99820.91;5052665;28;20483;-66
2022/11/30 10:45:08;;;;;;;15.80;8.93;;;;;;;6.73;100.00;99815.34;5030893;28;20029;-66
2022/11/30 10:47:35;;;;;;;17.88;9.82;;;;;;;6.78;100.00;99815.28;5062865;28;20047;-66
2022/11/30 10:50:05;;;;;;;11.57;7.63;;;;;;;6.73;100.00;99815.34;5051576;28;20411;-66
2022/11/30 10:52:46;;;;;;;16.65;9.02;;;;;;;6.70;100.00;99808.44;5052795;28;20740;-65
2022/11/30 10:55:21;;;;;;;14.13;8.52;;;;;;;6.82;100.00;99805.19;5054582;28;20027;-66
2022/11/30 10:57:52;;;;;;;13.20;7.63;;;;;;;6.73;100.00;99807.84;5050537;28;20032;-67
2022/11/30 11:00:18;;;;;;;9.98;6.47;;;;;;;6.67;100.00;99803.47;5053705;28;20107;-66
2022/11/30 11:02:44;;;;;;;9.48;6.88;;;;;;;6.64;100.00;99797.69;5032759;28;20036;-67
2022/11/30 11:05:16;;;;;;;21.02;15.43;;;;;;;6.69;100.00;99797.63;5028847;28;20044;-66
2022/11/30 11:08:01;;;;;;;11.70;6.95;;;;;;;6.75;100.00;99793.63;5044821;28;20098;-65
2022/11/30 11:10:51;;;;;;;11.13;6.20;;;;;;;6.77;100.00;99793.31;5026574;28;20033;-67
2022/11/30 11:13:38;;;;;;;9.60;6.63;;;;;;;6.78;100.00;99790.25;5016925;28;20385;-66
2022/11/30 11:16:06;;;;;;;8.80;6.10;;;;;;;6.73;100.00;99776.41;5019053;28;20037;-66
2022/11/30 11:18:34;;;;;;;14.40;6.38;;;;;;;6.94;100.00;99779.72;5026641;28;20115;-65
2022/11/30 11:21:08;;;;;;;11.13;7.35;;;;;;;6.95;100.00;99783.31;5022580;28;20029;-65
2022/11/30 11:23:39;;;;;;;11.10;7.72;;;;;;;6.98;100.00;99777.13;5030834;28;20504;-65
2022/11/30 11:26:19;;;;;;;10.13;7.55;;;;;;;7.04;100.00;99773.16;5034599;28;20029;-66
2022/11/30 11:28:46;;;;;;;;;;;;;;;6.98;100.00;99766.00;5045099;28;20333;-66
2022/11/30 11:31:37;;;;;;;9.68;7.82;;;;;;;7.01;100.00;99771.78;5039383;28;19917;-66
2022/11/30 11:34:07;;;;;;;10.18;6.40;;;;;;;6.92;100.00;99776.38;5018147;28;20116;-66